createdAt,value
2017-10-06T00:01:24.168Z,93.00
2017-10-06T00:03:52.036Z,93.10
2017-10-06T00:06:19.903Z,92.80
2017-10-06T00:08:47.872Z,92.80
2017-10-06T00:11:15.740Z,92.70
2017-10-06T00:13:43.607Z,92.70
2017-10-06T00:16:11.475Z,92.90
2017-10-06T00:18:39.343Z,92.80
2017-10-06T00:21:07.209Z,93.00
2017-10-06T00:23:35.076Z,93.00
2017-10-06T00:26:02.943Z,92.80
2017-10-06T00:28:30.811Z,92.90
2017-10-06T00:30:58.678Z,93.10
2017-10-06T00:33:26.546Z,93.20
2017-10-06T00:35:54.413Z,93.30
2017-10-06T00:38:22.280Z,93.30
2017-10-06T00:40:50.147Z,93.10
2017-10-06T00:43:18.014Z,92.90
2017-10-06T00:45:45.882Z,92.80
2017-10-06T00:48:13.750Z,92.70
2017-10-06T00:50:41.617Z,92.80
2017-10-06T00:53:09.483Z,92.70
2017-10-06T00:55:37.351Z,92.70
2017-10-06T00:58:05.194Z,92.60
2017-10-06T01:00:33.086Z,92.60
2017-10-06T01:03:00.954Z,92.70
2017-10-06T01:05:28.820Z,92.80
2017-10-06T01:07:56.687Z,92.70
2017-10-06T01:10:24.560Z,92.70
2017-10-06T01:12:52.422Z,92.70
2017-10-06T01:15:20.290Z,92.60
2017-10-06T01:17:49.079Z,92.60
2017-10-06T01:20:17.049Z,92.30
2017-10-06T01:22:44.916Z,92.20
2017-10-06T01:25:12.783Z,92.20
2017-10-06T01:27:40.650Z,92.40
2017-10-06T01:30:08.518Z,92.50
2017-10-06T01:32:36.384Z,92.50
2017-10-06T01:35:04.252Z,92.40
2017-10-06T01:37:32.120Z,92.50
2017-10-06T01:39:59.985Z,92.70
2017-10-06T01:42:27.854Z,92.80
2017-10-06T01:44:55.721Z,92.70
2017-10-06T01:47:23.590Z,92.30
2017-10-06T01:49:51.456Z,92.10
2017-10-06T01:52:19.324Z,92.40
2017-10-06T01:54:47.190Z,92.10
2017-10-06T01:57:15.059Z,92.00
2017-10-06T01:59:42.929Z,92.10
2017-10-06T02:02:10.798Z,92.20
2017-10-06T02:04:38.664Z,92.10
2017-10-06T02:07:06.528Z,92.10
2017-10-06T02:09:34.396Z,92.40
2017-10-06T02:12:02.267Z,92.80
2017-10-06T02:14:30.134Z,93.20
2017-10-06T02:16:58.001Z,93.60
2017-10-06T02:19:25.863Z,93.70
2017-10-06T02:21:53.735Z,93.70
2017-10-06T02:24:21.621Z,93.60
2017-10-06T02:26:50.285Z,93.70
2017-10-06T02:29:18.152Z,93.70
2017-10-06T02:31:46.123Z,94.00
2017-10-06T02:34:13.990Z,94.10
2017-10-06T02:36:41.856Z,93.90
2017-10-06T02:39:09.724Z,93.50
2017-10-06T02:41:37.592Z,93.30
2017-10-06T02:44:05.460Z,93.10
2017-10-06T02:46:33.325Z,92.90
2017-10-06T02:49:01.195Z,92.70
2017-10-06T02:51:29.060Z,92.50
2017-10-06T02:53:56.928Z,92.20
2017-10-06T02:56:24.796Z,92.20
2017-10-06T02:58:52.662Z,92.00
2017-10-06T03:01:20.537Z,91.90
2017-10-06T03:03:48.400Z,91.90
2017-10-06T03:06:16.264Z,92.00
2017-10-06T03:08:44.142Z,92.20
2017-10-06T03:11:12.102Z,92.40
2017-10-06T03:13:39.968Z,92.70
2017-10-06T03:16:07.836Z,92.70
2017-10-06T03:18:35.703Z,92.90
2017-10-06T03:21:03.571Z,92.90
2017-10-06T03:23:31.459Z,92.80
2017-10-06T03:26:00.022Z,92.60
2017-10-06T03:28:27.889Z,92.60
2017-10-06T03:30:55.757Z,92.30
2017-10-06T03:33:23.624Z,92.40
2017-10-06T03:35:51.492Z,92.60
2017-10-06T03:38:19.359Z,92.70
2017-10-06T03:40:47.226Z,92.90
2017-10-06T03:43:15.093Z,93.20
2017-10-06T03:45:42.961Z,93.30
2017-10-06T03:48:10.828Z,93.70
2017-10-06T03:50:38.696Z,93.30
2017-10-06T03:53:06.562Z,93.10
2017-10-06T03:55:34.429Z,92.80
2017-10-06T03:58:02.297Z,92.90
2017-10-06T04:00:30.165Z,92.60
2017-10-06T04:02:58.032Z,92.30
2017-10-06T04:05:25.899Z,92.60
2017-10-06T04:07:53.767Z,92.30
2017-10-06T04:10:21.633Z,92.20
2017-10-06T04:12:49.501Z,92.90
2017-10-06T04:15:17.368Z,93.40
2017-10-06T04:17:45.338Z,93.90
2017-10-06T04:20:13.646Z,94.20
2017-10-06T04:22:42.300Z,94.50
2017-10-06T04:25:10.168Z,94.60
2017-10-06T04:27:38.036Z,94.70
2017-10-06T04:30:05.843Z,94.70
2017-10-06T04:32:34.488Z,94.70
2017-10-06T04:35:02.354Z,94.70
2017-10-06T04:37:30.222Z,94.50
2017-10-06T04:39:58.095Z,94.60
2017-10-06T04:42:25.957Z,94.80
2017-10-06T04:44:53.828Z,95.10
2017-10-06T04:47:21.692Z,94.70
2017-10-06T04:49:49.457Z,94.60
2017-10-06T04:52:17.324Z,94.70
2017-10-06T04:54:45.191Z,94.60
2017-10-06T04:57:13.058Z,94.70
2017-10-06T04:59:40.926Z,94.70
2017-10-06T05:02:08.817Z,94.70
2017-10-06T05:04:37.583Z,94.70
2017-10-06T05:07:05.449Z,94.70
2017-10-06T05:09:33.316Z,94.70
2017-10-06T05:12:01.183Z,94.90
2017-10-06T05:14:29.068Z,94.50
2017-10-06T05:16:56.921Z,94.40
2017-10-06T05:19:24.788Z,94.30
2017-10-06T05:21:52.654Z,94.30
2017-10-06T05:24:20.524Z,94.40
2017-10-06T05:26:48.492Z,94.40
2017-10-06T05:29:16.359Z,94.40
2017-10-06T05:31:44.228Z,94.40
2017-10-06T05:34:12.098Z,94.30
2017-10-06T05:36:39.959Z,94.30
2017-10-06T05:39:07.826Z,94.30
2017-10-06T05:41:35.694Z,94.30
2017-10-06T05:44:03.562Z,94.20
2017-10-06T05:46:31.429Z,94.10
2017-10-06T05:48:59.295Z,94.00
2017-10-06T05:51:27.163Z,94.10
2017-10-06T05:53:55.031Z,94.10
2017-10-06T05:56:22.898Z,94.00
2017-10-06T05:58:50.764Z,93.90
2017-10-06T06:01:18.633Z,93.80
2017-10-06T06:03:46.499Z,93.70
2017-10-06T06:06:14.367Z,93.70
2017-10-06T06:08:42.336Z,93.60
2017-10-06T06:11:10.204Z,93.80
2017-10-06T06:13:38.070Z,93.70
2017-10-06T06:16:05.939Z,93.70
2017-10-06T06:18:33.806Z,93.80
2017-10-06T06:21:01.673Z,93.80
2017-10-06T06:23:29.540Z,94.00
2017-10-06T06:25:57.509Z,93.80
2017-10-06T06:28:25.377Z,93.80
2017-10-06T06:30:53.244Z,93.90
2017-10-06T06:33:21.316Z,93.70
2017-10-06T06:35:49.181Z,93.60
2017-10-06T06:38:17.054Z,93.70
2017-10-06T06:40:44.918Z,93.60
2017-10-06T06:43:12.786Z,93.90
2017-10-06T06:45:40.653Z,93.60
2017-10-06T06:48:08.521Z,93.10
2017-10-06T06:50:36.387Z,92.40
2017-10-06T06:53:04.256Z,92.50
2017-10-06T06:55:32.128Z,92.30
2017-10-06T06:57:59.990Z,92.30
2017-10-06T07:00:27.964Z,92.20
2017-10-06T07:02:55.827Z,92.40
2017-10-06T07:05:23.694Z,92.40
2017-10-06T07:07:51.561Z,92.30
2017-10-06T07:10:19.532Z,92.40
2017-10-06T07:12:47.502Z,92.50
2017-10-06T07:15:15.470Z,92.40
2017-10-06T07:17:43.338Z,92.60
2017-10-06T07:20:11.206Z,92.70
2017-10-06T07:22:39.175Z,92.50
2017-10-06T07:25:07.043Z,92.40
2017-10-06T07:27:34.909Z,92.50
2017-10-06T07:30:02.781Z,92.40
2017-10-06T07:32:30.643Z,92.40
2017-10-06T07:34:58.511Z,92.50
2017-10-06T07:37:26.378Z,92.60
2017-10-06T07:39:54.246Z,92.20
2017-10-06T07:42:22.115Z,92.00
2017-10-06T07:44:49.980Z,92.00
2017-10-06T07:47:17.857Z,92.50
2017-10-06T07:49:45.715Z,91.90
2017-10-06T07:52:13.583Z,91.70
2017-10-06T07:54:41.450Z,91.80
2017-10-06T07:57:09.317Z,91.90
2017-10-06T07:59:37.287Z,92.20
2017-10-06T08:02:05.155Z,91.70
2017-10-06T08:04:33.124Z,91.70
2017-10-06T08:07:00.991Z,91.90
2017-10-06T08:09:28.858Z,92.40
2017-10-06T08:11:56.828Z,92.20
2017-10-06T08:14:24.696Z,92.10
2017-10-06T08:16:52.768Z,92.50
2017-10-06T08:19:20.639Z,92.20
2017-10-06T08:21:48.503Z,92.30
2017-10-06T08:24:16.472Z,92.20
2017-10-06T08:26:44.446Z,92.60
2017-10-06T08:29:12.312Z,92.50
2017-10-06T08:31:40.179Z,92.70
2017-10-06T08:34:08.048Z,92.80
2017-10-06T08:36:35.915Z,93.00
2017-10-06T08:39:03.883Z,93.30
2017-10-06T08:41:31.753Z,93.40
2017-10-06T08:43:59.616Z,93.10
2017-10-06T08:46:27.483Z,92.90
2017-10-06T08:48:55.349Z,92.60
2017-10-06T08:51:23.218Z,92.50
2017-10-06T08:53:51.084Z,92.30
2017-10-06T08:56:18.951Z,91.20
2017-10-06T08:58:46.819Z,90.90
2017-10-06T09:01:14.686Z,90.90
2017-10-06T09:03:42.656Z,91.20
2017-10-06T09:06:10.523Z,88.30
2017-10-06T09:08:38.392Z,81.20
2017-10-06T09:11:06.258Z,77.50
2017-10-06T09:13:34.125Z,77.50
2017-10-06T09:16:02.023Z,76.60
2017-10-06T09:18:30.679Z,74.40
2017-10-06T09:20:58.546Z,74.30
2017-10-06T09:23:26.414Z,74.80
2017-10-06T09:25:54.281Z,74.10
2017-10-06T09:28:22.152Z,72.60
2017-10-06T09:30:50.017Z,72.50
2017-10-06T09:33:17.882Z,73.70
2017-10-06T09:35:45.750Z,73.40
2017-10-06T09:38:13.617Z,72.40
2017-10-06T09:40:41.485Z,71.50
2017-10-06T09:43:09.351Z,70.50
2017-10-06T09:45:37.220Z,71.60
2017-10-06T09:48:05.086Z,71.90
2017-10-06T09:50:32.955Z,74.80
2017-10-06T09:53:00.821Z,74.80
2017-10-06T09:55:28.689Z,75.90
2017-10-06T09:57:56.488Z,77.20
2017-10-06T10:00:25.140Z,77.60
2017-10-06T10:02:53.110Z,77.60
2017-10-06T10:05:20.978Z,79.10
2017-10-06T10:07:48.844Z,79.00
2017-10-06T10:10:16.814Z,80.30
2017-10-06T10:12:44.681Z,81.20
2017-10-06T10:15:12.549Z,80.60
2017-10-06T10:17:40.416Z,80.60
2017-10-06T10:20:08.288Z,82.20
2017-10-06T10:22:36.152Z,83.90
2017-10-06T10:25:04.018Z,83.40
2017-10-06T10:27:31.886Z,83.80
2017-10-06T10:29:59.757Z,83.40
2017-10-06T10:32:27.723Z,84.60
2017-10-06T10:34:55.589Z,84.00
2017-10-06T10:37:23.458Z,84.20
2017-10-06T10:39:51.324Z,86.10
2017-10-06T10:42:19.195Z,87.50
2017-10-06T10:44:47.059Z,87.90
2017-10-06T10:47:14.926Z,88.40
2017-10-06T10:49:42.896Z,88.30
2017-10-06T10:52:10.866Z,87.70
2017-10-06T10:54:38.733Z,87.90
2017-10-06T10:57:06.600Z,89.20
2017-10-06T10:59:34.468Z,89.60
2017-10-06T11:02:02.334Z,87.40
2017-10-06T11:04:30.304Z,86.10
2017-10-06T11:06:58.274Z,84.30
2017-10-06T11:09:26.244Z,84.40
2017-10-06T11:11:54.217Z,83.10
2017-10-06T11:14:22.081Z,84.90
2017-10-06T11:16:50.051Z,84.10
2017-10-06T11:19:18.022Z,84.10
2017-10-06T11:21:45.889Z,81.20
2017-10-06T11:24:13.688Z,82.00
2017-10-06T11:26:42.340Z,75.30
2017-10-06T11:29:10.309Z,75.30
2017-10-06T11:31:38.177Z,75.00
2017-10-06T11:34:06.146Z,73.70
2017-10-06T11:36:34.127Z,74.60
2017-10-06T11:39:02.090Z,75.20
2017-10-06T11:41:30.059Z,75.80
2017-10-06T11:43:58.025Z,75.20
2017-10-06T11:46:26.000Z,74.60
2017-10-06T11:48:53.975Z,75.00
2017-10-06T11:51:21.938Z,75.60
2017-10-06T11:53:49.905Z,77.10
2017-10-06T11:56:17.874Z,78.00
2017-10-06T11:58:45.741Z,76.10
2017-10-06T12:01:13.610Z,77.60
2017-10-06T12:03:41.476Z,78.00
2017-10-06T12:06:09.343Z,76.50
2017-10-06T12:08:37.312Z,76.90
2017-10-06T12:11:05.180Z,78.60
2017-10-06T12:13:33.150Z,76.50
2017-10-06T12:16:01.017Z,76.90
2017-10-06T12:18:28.884Z,78.70
2017-10-06T12:20:56.752Z,80.20
2017-10-06T12:23:24.721Z,81.90
2017-10-06T12:25:52.690Z,83.40
2017-10-06T12:28:20.660Z,83.80
2017-10-06T12:30:48.529Z,85.70
2017-10-06T12:33:16.395Z,86.50
2017-10-06T12:35:44.365Z,87.60
2017-10-06T12:38:12.232Z,89.00
2017-10-06T12:40:40.099Z,88.00
2017-10-06T12:43:08.208Z,89.30
2017-10-06T12:45:36.857Z,88.30
2017-10-06T12:48:04.726Z,88.30
2017-10-06T12:50:32.695Z,88.90
2017-10-06T12:53:00.563Z,89.50
2017-10-06T12:55:28.429Z,89.50
2017-10-06T12:57:56.399Z,90.00
2017-10-06T13:00:24.267Z,90.20
2017-10-06T13:02:52.135Z,90.20
2017-10-06T13:05:20.001Z,90.10
2017-10-06T13:07:47.868Z,90.00
2017-10-06T13:10:15.735Z,90.20
2017-10-06T13:12:43.604Z,89.20
2017-10-06T13:15:11.471Z,88.60
2017-10-06T13:17:39.338Z,89.60
2017-10-06T13:20:07.201Z,88.70
2017-10-06T13:22:35.002Z,88.20
2017-10-06T13:25:03.658Z,87.50
2017-10-06T13:27:31.525Z,87.50
2017-10-06T13:29:59.391Z,87.80
2017-10-06T13:32:27.259Z,87.80
2017-10-06T13:34:55.126Z,87.70
2017-10-06T13:37:22.993Z,86.70
2017-10-06T13:39:50.861Z,87.00
2017-10-06T13:42:18.730Z,87.30
2017-10-06T13:44:46.595Z,86.70
2017-10-06T13:47:14.462Z,85.00
2017-10-06T13:49:42.432Z,85.00
2017-10-06T13:52:10.304Z,83.70
2017-10-06T13:54:38.170Z,82.70
2017-10-06T13:57:06.035Z,83.60
2017-10-06T13:59:33.901Z,83.50
2017-10-06T14:02:01.769Z,83.30
2017-10-06T14:04:29.635Z,85.30
2017-10-06T14:06:57.505Z,86.60
2017-10-06T14:09:25.372Z,86.50
2017-10-06T14:11:53.238Z,86.00
2017-10-06T14:14:21.105Z,86.10
2017-10-06T14:16:48.972Z,87.40
2017-10-06T14:19:16.840Z,85.40
2017-10-06T14:21:44.708Z,83.60
2017-10-06T14:24:12.607Z,83.50
2017-10-06T14:26:41.364Z,82.30
2017-10-06T14:29:09.233Z,82.20
2017-10-06T14:31:37.098Z,81.60
2017-10-06T14:34:04.968Z,80.90
2017-10-06T14:36:32.833Z,76.30
2017-10-06T14:39:00.701Z,78.20
2017-10-06T14:41:28.568Z,75.30
2017-10-06T14:43:56.434Z,76.40
2017-10-06T14:46:24.301Z,75.50
2017-10-06T14:48:52.175Z,76.10
2017-10-06T14:51:20.040Z,75.70
2017-10-06T14:53:47.905Z,76.90
2017-10-06T14:56:16.595Z,76.60
2017-10-06T14:58:44.462Z,77.10
2017-10-06T15:01:12.328Z,77.90
2017-10-06T15:03:40.196Z,78.50
2017-10-06T15:06:08.062Z,77.50
2017-10-06T15:08:35.926Z,77.80
2017-10-06T15:11:03.795Z,78.20
2017-10-06T15:13:31.662Z,79.40
2017-10-06T15:15:59.537Z,76.30
2017-10-06T15:18:27.396Z,77.80
2017-10-06T15:20:55.266Z,79.00
2017-10-06T15:23:23.757Z,77.30
2017-10-06T15:25:51.617Z,78.00
2017-10-06T15:28:19.481Z,78.30
2017-10-06T15:30:47.451Z,76.70
2017-10-06T15:33:15.316Z,78.70
2017-10-06T15:35:43.186Z,78.80
2017-10-06T15:38:11.052Z,77.30
2017-10-06T15:40:38.919Z,78.30
2017-10-06T15:43:06.785Z,79.20
2017-10-06T15:45:34.653Z,78.60
2017-10-06T15:48:02.520Z,77.70
2017-10-06T15:50:30.387Z,79.50
2017-10-06T15:52:58.255Z,77.60
2017-10-06T15:55:26.129Z,78.20
2017-10-06T15:57:53.991Z,78.80
2017-10-06T16:00:21.858Z,78.50
2017-10-06T16:02:49.930Z,80.10
2017-10-06T16:05:17.796Z,79.50
2017-10-06T16:07:45.663Z,79.80
2017-10-06T16:10:13.532Z,79.50
2017-10-06T16:12:41.413Z,80.20
2017-10-06T16:15:09.278Z,80.10
2017-10-06T16:17:37.236Z,81.60
2017-10-06T16:20:05.104Z,80.20
2017-10-06T16:22:32.970Z,81.40
2017-10-06T16:25:00.837Z,81.20
2017-10-06T16:27:28.705Z,81.00
2017-10-06T16:29:57.392Z,81.60
2017-10-06T16:32:25.259Z,82.00
2017-10-06T16:34:53.127Z,82.20
2017-10-06T16:37:20.994Z,82.50
2017-10-06T16:39:48.861Z,82.50
2017-10-06T16:42:16.728Z,83.00
2017-10-06T16:44:44.595Z,83.10
2017-10-06T16:47:12.464Z,82.70
2017-10-06T16:49:40.330Z,83.30
2017-10-06T16:52:08.197Z,83.10
2017-10-06T16:54:36.065Z,83.40
2017-10-06T16:57:03.932Z,83.20
2017-10-06T16:59:31.799Z,83.60
2017-10-06T17:01:59.667Z,84.10
2017-10-06T17:04:27.533Z,84.20
2017-10-06T17:06:55.402Z,84.80
2017-10-06T17:09:23.269Z,84.80
2017-10-06T17:11:51.136Z,84.50
2017-10-06T17:14:19.004Z,84.50
2017-10-06T17:16:46.871Z,85.00
2017-10-06T17:19:14.738Z,85.30
2017-10-06T17:21:42.605Z,85.80
2017-10-06T17:24:10.473Z,85.90
2017-10-06T17:26:38.340Z,86.10
2017-10-06T17:29:06.208Z,86.50
2017-10-06T17:31:34.075Z,87.50
2017-10-06T17:34:01.942Z,87.70
2017-10-06T17:36:29.809Z,88.50
2017-10-06T17:38:57.676Z,88.30
2017-10-06T17:41:25.544Z,88.30
2017-10-06T17:43:53.411Z,86.90
2017-10-06T17:46:21.278Z,87.80
2017-10-06T17:48:49.146Z,87.10
2017-10-06T17:51:17.013Z,87.00
2017-10-06T17:53:44.879Z,87.30
2017-10-06T17:56:12.748Z,86.70
2017-10-06T17:58:40.620Z,86.80
2017-10-06T18:01:08.488Z,87.20
2017-10-06T18:03:36.559Z,86.70
2017-10-06T18:06:04.430Z,86.90
2017-10-06T18:08:32.292Z,87.20
2017-10-06T18:11:00.165Z,87.60
2017-10-06T18:13:28.027Z,87.50
2017-10-06T18:15:55.891Z,87.60
2017-10-06T18:18:23.759Z,88.00
2017-10-06T18:20:51.728Z,88.30
2017-10-06T18:23:19.595Z,88.50
2017-10-06T18:25:47.462Z,88.30
2017-10-06T18:28:15.330Z,88.60
2017-10-06T18:30:43.299Z,88.60
2017-10-06T18:33:11.167Z,88.90
2017-10-06T18:35:39.034Z,88.70
2017-10-06T18:38:06.902Z,88.40
2017-10-06T18:40:34.769Z,88.40
2017-10-06T18:43:02.636Z,88.50
2017-10-06T18:45:30.504Z,88.50
2017-10-06T18:47:58.371Z,88.50
2017-10-06T18:50:26.238Z,88.50
2017-10-06T18:52:54.105Z,88.80
2017-10-06T18:55:21.973Z,88.80
2017-10-06T18:57:49.839Z,88.80
2017-10-06T19:00:17.810Z,89.40
2017-10-06T19:02:45.677Z,89.50
2017-10-06T19:05:13.476Z,89.50
2017-10-06T19:07:42.128Z,89.30
2017-10-06T19:10:09.996Z,89.30
2017-10-06T19:12:37.863Z,89.70
2017-10-06T19:15:05.731Z,89.70
2017-10-06T19:17:33.597Z,90.00
2017-10-06T19:20:02.707Z,90.10
2017-10-06T19:22:30.561Z,90.20
2017-10-06T19:25:00.395Z,90.20
2017-10-06T19:27:28.446Z,90.20
2017-10-06T19:29:56.321Z,90.20
2017-10-06T19:32:24.184Z,90.30
2017-10-06T19:34:52.392Z,90.30
2017-10-06T19:37:21.046Z,90.50
2017-10-06T19:39:48.910Z,90.50
2017-10-06T19:42:16.777Z,90.80
2017-10-06T19:44:44.644Z,90.80
2017-10-06T19:47:12.614Z,90.90
2017-10-06T19:49:41.032Z,91.00
2017-10-06T19:52:08.966Z,91.00
2017-10-06T19:54:36.932Z,90.90
2017-10-06T19:57:04.800Z,90.90
2017-10-06T19:59:32.667Z,90.90
2017-10-06T20:02:00.535Z,90.80
2017-10-06T20:04:28.402Z,90.80
2017-10-06T20:06:56.269Z,90.80
2017-10-06T20:09:24.135Z,90.70
2017-10-06T20:11:52.003Z,90.80
2017-10-06T20:14:19.871Z,90.90
2017-10-06T20:16:47.737Z,91.00
2017-10-06T20:19:15.606Z,91.30
2017-10-06T20:21:43.474Z,91.20
2017-10-06T20:24:11.340Z,91.20
2017-10-06T20:26:39.208Z,91.20
2017-10-06T20:29:07.074Z,91.30
2017-10-06T20:31:34.955Z,91.60
2017-10-06T20:34:02.809Z,91.60
2017-10-06T20:36:30.681Z,91.50
2017-10-06T20:38:58.544Z,91.40
2017-10-06T20:41:26.412Z,91.40
2017-10-06T20:43:54.381Z,91.30
2017-10-06T20:46:22.350Z,91.20
2017-10-06T20:48:50.217Z,91.20
2017-10-06T20:51:18.085Z,91.10
2017-10-06T20:53:45.952Z,91.10
2017-10-06T20:56:13.819Z,91.10
2017-10-06T20:58:41.687Z,91.00
2017-10-06T21:01:09.553Z,91.10
2017-10-06T21:03:37.421Z,91.20
2017-10-06T21:06:05.288Z,91.20
2017-10-06T21:08:33.160Z,91.30
2017-10-06T21:11:01.028Z,91.30
2017-10-06T21:13:28.892Z,91.40
2017-10-06T21:15:56.762Z,91.60
2017-10-06T21:18:24.630Z,91.80
2017-10-06T21:20:52.493Z,91.90
2017-10-06T21:23:20.362Z,92.00
2017-10-06T21:25:48.230Z,92.10
2017-10-06T21:28:16.095Z,92.10
2017-10-06T21:30:43.961Z,92.10
2017-10-06T21:33:11.830Z,92.00
2017-10-06T21:35:39.695Z,91.80
2017-10-06T21:38:07.563Z,91.70
2017-10-06T21:40:35.431Z,91.60
2017-10-06T21:43:03.298Z,91.50
2017-10-06T21:45:31.166Z,91.40
2017-10-06T21:47:59.032Z,91.30
2017-10-06T21:50:27.004Z,91.20
2017-10-06T21:52:54.869Z,91.20
2017-10-06T21:55:22.839Z,91.00
2017-10-06T21:57:50.706Z,91.10
2017-10-06T22:00:21.441Z,91.10
2017-10-06T22:02:49.309Z,90.70
2017-10-06T22:05:17.176Z,90.80
2017-10-06T22:07:45.043Z,90.70
2017-10-06T22:10:12.845Z,90.80
2017-10-06T22:12:41.496Z,90.70
2017-10-06T22:15:09.362Z,90.70
2017-10-06T22:17:37.229Z,90.40
2017-10-06T22:20:05.097Z,90.40
2017-10-06T22:22:32.964Z,90.20
2017-10-06T22:25:00.832Z,90.30
2017-10-06T22:27:28.698Z,90.70
2017-10-06T22:29:56.566Z,91.10
2017-10-06T22:32:24.433Z,91.00
2017-10-06T22:34:52.301Z,90.60
2017-10-06T22:37:20.167Z,90.70
2017-10-06T22:39:48.035Z,90.60
2017-10-06T22:42:15.902Z,90.70
2017-10-06T22:44:43.769Z,90.60
2017-10-06T22:47:11.637Z,90.70
2017-10-06T22:49:39.506Z,91.10
2017-10-06T22:52:07.474Z,91.20
2017-10-06T22:54:35.341Z,91.40
2017-10-06T22:57:03.134Z,91.60
2017-10-06T22:59:30.977Z,91.90
2017-10-06T23:01:58.841Z,92.00
2017-10-06T23:04:26.708Z,92.20
2017-10-06T23:06:54.575Z,92.00
2017-10-06T23:09:22.442Z,92.00
2017-10-06T23:11:50.310Z,92.10
2017-10-06T23:14:18.177Z,91.90
2017-10-06T23:16:46.044Z,91.80
2017-10-06T23:19:13.911Z,91.80
2017-10-06T23:21:41.779Z,91.80
2017-10-06T23:24:09.649Z,92.00
2017-10-06T23:26:37.513Z,92.00
2017-10-06T23:29:05.379Z,92.10
2017-10-06T23:31:33.248Z,92.10
2017-10-06T23:34:01.115Z,92.20
2017-10-06T23:36:28.982Z,92.10
2017-10-06T23:38:56.851Z,92.20
2017-10-06T23:41:24.846Z,92.30
2017-10-06T23:43:52.688Z,92.10
2017-10-06T23:46:20.554Z,92.00
2017-10-06T23:48:48.422Z,91.80
2017-10-06T23:51:16.289Z,91.90
2017-10-06T23:53:44.157Z,92.00
2017-10-06T23:56:12.025Z,92.10
2017-10-06T23:58:39.890Z,92.00
